sensor_id;sensor_type;location;lat;lon;timestamp;P1;durP1;ratioP1;P2;durP2;ratioP2
74177;SDS011;62540;48.456;-4.456;2023-12-14T00:00:54;0.00;;;0.00;;
74177;SDS011;62540;48.456;-4.456;2023-12-14T00:03:20;0.00;;;0.00;;
74177;SDS011;62540;48.456;-4.456;2023-12-14T00:05:45;1.00;;;0.00;;
74177;SDS011;62540;48.456;-4.456;2023-12-14T00:08:11;0.00;;;0.00;;
74177;SDS011;62540;48.456;-4.456;2023-12-14T00:10:36;0.00;;;0.00;;
74177;SDS011;62540;48.456;-4.456;2023-12-14T00:13:01;0.00;;;0.00;;
74177;SDS011;62540;48.456;-4.456;2023-12-14T00:15:29;1.00;;;0.00;;
74177;SDS011;62540;48.456;-4.456;2023-12-14T00:17:54;1.00;;;0.00;;
74177;SDS011;62540;48.456;-4.456;2023-12-14T00:20:20;0.00;;;0.00;;
74177;SDS011;62540;48.456;-4.456;2023-12-14T00:22:45;0.00;;;0.00;;
74177;SDS011;62540;48.456;-4.456;2023-12-14T00:25:11;0.00;;;0.00;;
74177;SDS011;62540;48.456;-4.456;2023-12-14T00:27:36;0.00;;;0.00;;
74177;SDS011;62540;48.456;-4.456;2023-12-14T00:30:01;1.00;;;0.00;;
74177;SDS011;62540;48.456;-4.456;2023-12-14T00:32:27;0.00;;;0.00;;
74177;SDS011;62540;48.456;-4.456;2023-12-14T00:34:52;1.00;;;0.00;;
74177;SDS011;62540;48.456;-4.456;2023-12-14T00:37:18;0.00;;;0.00;;
74177;SDS011;62540;48.456;-4.456;2023-12-14T00:39:43;0.00;;;0.00;;
74177;SDS011;62540;48.456;-4.456;2023-12-14T00:42:09;1.00;;;0.00;;
74177;SDS011;62540;48.456;-4.456;2023-12-14T00:44:34;0.50;;;0.00;;
74177;SDS011;62540;48.456;-4.456;2023-12-14T00:46:59;0.25;;;0.00;;
74177;SDS011;62540;48.456;-4.456;2023-12-14T00:49:25;1.00;;;0.00;;
74177;SDS011;62540;48.456;-4.456;2023-12-14T00:51:52;0.00;;;0.00;;
74177;SDS011;62540;48.456;-4.456;2023-12-14T00:54:18;1.00;;;0.00;;
74177;SDS011;62540;48.456;-4.456;2023-12-14T00:56:43;0.00;;;0.00;;
74177;SDS011;62540;48.456;-4.456;2023-12-14T00:59:09;0.00;;;0.00;;
74177;SDS011;62540;48.456;-4.456;2023-12-14T01:01:34;1.75;;;0.00;;
74177;SDS011;62540;48.456;-4.456;2023-12-14T01:04:00;0.00;;;0.00;;
74177;SDS011;62540;48.456;-4.456;2023-12-14T01:06:25;0.00;;;0.00;;
74177;SDS011;62540;48.456;-4.456;2023-12-14T01:08:50;0.00;;;0.00;;
74177;SDS011;62540;48.456;-4.456;2023-12-14T01:11:16;0.50;;;0.00;;
74177;SDS011;62540;48.456;-4.456;2023-12-14T01:13:41;1.00;;;0.00;;
74177;SDS011;62540;48.456;-4.456;2023-12-14T01:16:07;0.00;;;0.00;;
74177;SDS011;62540;48.456;-4.456;2023-12-14T01:18:32;0.00;;;0.00;;
74177;SDS011;62540;48.456;-4.456;2023-12-14T01:20:58;0.25;;;0.00;;
74177;SDS011;62540;48.456;-4.456;2023-12-14T01:23:23;0.00;;;0.00;;
74177;SDS011;62540;48.456;-4.456;2023-12-14T01:25:49;0.00;;;0.00;;
74177;SDS011;62540;48.456;-4.456;2023-12-14T01:28:14;0.00;;;0.00;;
74177;SDS011;62540;48.456;-4.456;2023-12-14T01:30:40;0.00;;;0.00;;
74177;SDS011;62540;48.456;-4.456;2023-12-14T01:33:05;0.00;;;0.00;;
74177;SDS011;62540;48.456;-4.456;2023-12-14T01:35:30;0.00;;;0.00;;
74177;SDS011;62540;48.456;-4.456;2023-12-14T01:37:56;0.00;;;0.00;;
74177;SDS011;62540;48.456;-4.456;2023-12-14T01:40:21;0.25;;;0.00;;
74177;SDS011;62540;48.456;-4.456;2023-12-14T01:42:46;0.00;;;0.00;;
74177;SDS011;62540;48.456;-4.456;2023-12-14T01:45:13;0.00;;;0.00;;
74177;SDS011;62540;48.456;-4.456;2023-12-14T01:47:41;0.00;;;0.00;;
74177;SDS011;62540;48.456;-4.456;2023-12-14T01:50:07;0.00;;;0.00;;
74177;SDS011;62540;48.456;-4.456;2023-12-14T01:52:32;0.00;;;0.00;;
74177;SDS011;62540;48.456;-4.456;2023-12-14T01:54:57;0.75;;;0.00;;
74177;SDS011;62540;48.456;-4.456;2023-12-14T01:57:24;0.00;;;0.00;;
74177;SDS011;62540;48.456;-4.456;2023-12-14T01:59:49;0.00;;;0.00;;
74177;SDS011;62540;48.456;-4.456;2023-12-14T02:02:15;0.00;;;0.00;;
74177;SDS011;62540;48.456;-4.456;2023-12-14T02:04:40;0.00;;;0.00;;
74177;SDS011;62540;48.456;-4.456;2023-12-14T02:07:05;1.00;;;0.00;;
74177;SDS011;62540;48.456;-4.456;2023-12-14T02:09:31;0.00;;;0.00;;
74177;SDS011;62540;48.456;-4.456;2023-12-14T02:11:56;1.00;;;0.00;;
74177;SDS011;62540;48.456;-4.456;2023-12-14T02:14:22;0.50;;;0.00;;
74177;SDS011;62540;48.456;-4.456;2023-12-14T02:16:48;0.00;;;0.00;;
74177;SDS011;62540;48.456;-4.456;2023-12-14T02:19:13;0.25;;;0.00;;
74177;SDS011;62540;48.456;-4.456;2023-12-14T02:21:39;0.00;;;0.00;;
74177;SDS011;62540;48.456;-4.456;2023-12-14T02:24:04;0.00;;;0.00;;
74177;SDS011;62540;48.456;-4.456;2023-12-14T02:26:29;0.00;;;0.00;;
74177;SDS011;62540;48.456;-4.456;2023-12-14T02:28:55;1.00;;;0.00;;
74177;SDS011;62540;48.456;-4.456;2023-12-14T02:31:20;1.00;;;0.00;;
74177;SDS011;62540;48.456;-4.456;2023-12-14T02:33:46;0.00;;;0.00;;
74177;SDS011;62540;48.456;-4.456;2023-12-14T02:36:11;1.25;;;0.00;;
74177;SDS011;62540;48.456;-4.456;2023-12-14T02:38:37;0.00;;;0.00;;
74177;SDS011;62540;48.456;-4.456;2023-12-14T02:41:02;0.00;;;0.00;;
74177;SDS011;62540;48.456;-4.456;2023-12-14T02:43:28;0.75;;;0.00;;
74177;SDS011;62540;48.456;-4.456;2023-12-14T02:45:53;0.00;;;0.00;;
74177;SDS011;62540;48.456;-4.456;2023-12-14T02:48:20;0.00;;;0.00;;
74177;SDS011;62540;48.456;-4.456;2023-12-14T02:50:45;0.50;;;0.00;;
74177;SDS011;62540;48.456;-4.456;2023-12-14T02:53:11;1.25;;;0.00;;
74177;SDS011;62540;48.456;-4.456;2023-12-14T02:55:36;0.00;;;0.00;;
74177;SDS011;62540;48.456;-4.456;2023-12-14T02:58:02;0.00;;;0.00;;
74177;SDS011;62540;48.456;-4.456;2023-12-14T03:00:27;0.00;;;0.00;;
74177;SDS011;62540;48.456;-4.456;2023-12-14T03:02:53;0.00;;;0.00;;
74177;SDS011;62540;48.456;-4.456;2023-12-14T03:05:18;0.00;;;0.00;;
74177;SDS011;62540;48.456;-4.456;2023-12-14T03:07:43;0.00;;;0.00;;
74177;SDS011;62540;48.456;-4.456;2023-12-14T03:10:09;0.00;;;0.00;;
74177;SDS011;62540;48.456;-4.456;2023-12-14T03:12:34;0.00;;;0.00;;
74177;SDS011;62540;48.456;-4.456;2023-12-14T03:15:00;0.00;;;0.00;;
74177;SDS011;62540;48.456;-4.456;2023-12-14T03:17:25;0.00;;;0.00;;
74177;SDS011;62540;48.456;-4.456;2023-12-14T03:19:51;1.00;;;0.00;;
74177;SDS011;62540;48.456;-4.456;2023-12-14T03:22:16;0.00;;;0.00;;
74177;SDS011;62540;48.456;-4.456;2023-12-14T03:24:41;0.00;;;0.00;;
74177;SDS011;62540;48.456;-4.456;2023-12-14T03:27:07;0.00;;;0.00;;
74177;SDS011;62540;48.456;-4.456;2023-12-14T03:29:32;0.25;;;0.00;;
74177;SDS011;62540;48.456;-4.456;2023-12-14T03:31:58;0.25;;;0.00;;
74177;SDS011;62540;48.456;-4.456;2023-12-14T03:34:23;0.00;;;0.00;;
74177;SDS011;62540;48.456;-4.456;2023-12-14T03:36:49;0.25;;;0.00;;
74177;SDS011;62540;48.456;-4.456;2023-12-14T03:39:15;0.00;;;0.00;;
74177;SDS011;62540;48.456;-4.456;2023-12-14T03:41:43;1.00;;;0.00;;
74177;SDS011;62540;48.456;-4.456;2023-12-14T03:44:09;0.00;;;0.00;;
74177;SDS011;62540;48.456;-4.456;2023-12-14T03:46:35;0.00;;;0.00;;
74177;SDS011;62540;48.456;-4.456;2023-12-14T03:49:00;0.00;;;0.00;;
74177;SDS011;62540;48.456;-4.456;2023-12-14T03:51:26;1.00;;;0.00;;
74177;SDS011;62540;48.456;-4.456;2023-12-14T03:53:52;0.00;;;0.00;;
74177;SDS011;62540;48.456;-4.456;2023-12-14T03:56:17;0.00;;;0.00;;
74177;SDS011;62540;48.456;-4.456;2023-12-14T03:58:43;0.00;;;0.00;;
74177;SDS011;62540;48.456;-4.456;2023-12-14T04:01:14;0.00;;;0.00;;
74177;SDS011;62540;48.456;-4.456;2023-12-14T04:03:41;0.00;;;0.00;;
74177;SDS011;62540;48.456;-4.456;2023-12-14T04:06:06;0.00;;;0.00;;
74177;SDS011;62540;48.456;-4.456;2023-12-14T04:08:32;0.00;;;0.00;;
74177;SDS011;62540;48.456;-4.456;2023-12-14T04:10:57;0.75;;;0.00;;
74177;SDS011;62540;48.456;-4.456;2023-12-14T04:13:23;0.00;;;0.00;;
74177;SDS011;62540;48.456;-4.456;2023-12-14T04:15:48;0.00;;;0.00;;
74177;SDS011;62540;48.456;-4.456;2023-12-14T04:18:13;0.00;;;0.00;;
74177;SDS011;62540;48.456;-4.456;2023-12-14T04:20:39;0.00;;;0.00;;
74177;SDS011;62540;48.456;-4.456;2023-12-14T04:23:04;0.00;;;0.00;;
74177;SDS011;62540;48.456;-4.456;2023-12-14T04:25:30;0.00;;;0.00;;
74177;SDS011;62540;48.456;-4.456;2023-12-14T04:27:55;1.00;;;0.00;;
74177;SDS011;62540;48.456;-4.456;2023-12-14T04:30:20;0.00;;;0.00;;
74177;SDS011;62540;48.456;-4.456;2023-12-14T04:32:46;0.00;;;0.00;;
74177;SDS011;62540;48.456;-4.456;2023-12-14T04:35:12;1.00;;;0.00;;
74177;SDS011;62540;48.456;-4.456;2023-12-14T04:37:38;0.00;;;0.00;;
74177;SDS011;62540;48.456;-4.456;2023-12-14T04:40:03;0.00;;;0.00;;
74177;SDS011;62540;48.456;-4.456;2023-12-14T04:42:29;0.00;;;0.00;;
74177;SDS011;62540;48.456;-4.456;2023-12-14T04:44:54;0.00;;;0.00;;
74177;SDS011;62540;48.456;-4.456;2023-12-14T04:47:20;0.00;;;0.00;;
74177;SDS011;62540;48.456;-4.456;2023-12-14T04:49:45;0.00;;;0.00;;
74177;SDS011;62540;48.456;-4.456;2023-12-14T04:52:10;0.25;;;0.00;;
74177;SDS011;62540;48.456;-4.456;2023-12-14T04:54:36;0.50;;;0.00;;
74177;SDS011;62540;48.456;-4.456;2023-12-14T04:57:04;1.25;;;0.00;;
74177;SDS011;62540;48.456;-4.456;2023-12-14T04:59:29;0.00;;;0.00;;
74177;SDS011;62540;48.456;-4.456;2023-12-14T05:01:54;0.75;;;0.00;;
74177;SDS011;62540;48.456;-4.456;2023-12-14T05:04:20;0.00;;;0.00;;
74177;SDS011;62540;48.456;-4.456;2023-12-14T05:06:45;1.00;;;0.00;;
74177;SDS011;62540;48.456;-4.456;2023-12-14T05:09:11;1.00;;;0.25;;
74177;SDS011;62540;48.456;-4.456;2023-12-14T05:11:36;0.00;;;0.00;;
74177;SDS011;62540;48.456;-4.456;2023-12-14T05:14:02;0.00;;;0.00;;
74177;SDS011;62540;48.456;-4.456;2023-12-14T05:16:28;0.00;;;0.00;;
74177;SDS011;62540;48.456;-4.456;2023-12-14T05:18:53;0.00;;;0.00;;
74177;SDS011;62540;48.456;-4.456;2023-12-14T05:21:19;1.25;;;0.00;;
74177;SDS011;62540;48.456;-4.456;2023-12-14T05:23:44;0.25;;;0.00;;
74177;SDS011;62540;48.456;-4.456;2023-12-14T05:26:10;1.00;;;0.00;;
74177;SDS011;62540;48.456;-4.456;2023-12-14T05:28:35;0.00;;;0.00;;
74177;SDS011;62540;48.456;-4.456;2023-12-14T05:31:01;0.00;;;0.00;;
74177;SDS011;62540;48.456;-4.456;2023-12-14T05:33:27;2.50;;;1.00;;
74177;SDS011;62540;48.456;-4.456;2023-12-14T05:35:53;1.75;;;0.00;;
74177;SDS011;62540;48.456;-4.456;2023-12-14T05:38:19;0.00;;;0.00;;
74177;SDS011;62540;48.456;-4.456;2023-12-14T05:40:44;0.00;;;0.00;;
74177;SDS011;62540;48.456;-4.456;2023-12-14T05:43:10;0.00;;;0.00;;
74177;SDS011;62540;48.456;-4.456;2023-12-14T05:45:35;1.00;;;0.75;;
74177;SDS011;62540;48.456;-4.456;2023-12-14T05:48:01;0.00;;;0.00;;
74177;SDS011;62540;48.456;-4.456;2023-12-14T05:50:27;0.25;;;0.00;;
74177;SDS011;62540;48.456;-4.456;2023-12-14T05:52:52;0.25;;;0.25;;
74177;SDS011;62540;48.456;-4.456;2023-12-14T05:55:18;0.75;;;0.00;;
74177;SDS011;62540;48.456;-4.456;2023-12-14T05:57:46;1.75;;;1.00;;
74177;SDS011;62540;48.456;-4.456;2023-12-14T06:00:12;1.00;;;0.00;;
74177;SDS011;62540;48.456;-4.456;2023-12-14T06:02:38;0.00;;;0.00;;
74177;SDS011;62540;48.456;-4.456;2023-12-14T06:05:04;1.00;;;1.00;;
74177;SDS011;62540;48.456;-4.456;2023-12-14T06:07:31;0.75;;;0.00;;
74177;SDS011;62540;48.456;-4.456;2023-12-14T06:09:56;0.00;;;0.00;;
74177;SDS011;62540;48.456;-4.456;2023-12-14T06:12:22;0.00;;;0.00;;
74177;SDS011;62540;48.456;-4.456;2023-12-14T06:14:47;0.25;;;0.25;;
74177;SDS011;62540;48.456;-4.456;2023-12-14T06:17:12;0.00;;;0.00;;
74177;SDS011;62540;48.456;-4.456;2023-12-14T06:19:38;0.00;;;0.00;;
74177;SDS011;62540;48.456;-4.456;2023-12-14T06:22:03;1.00;;;1.00;;
74177;SDS011;62540;48.456;-4.456;2023-12-14T06:24:29;0.00;;;0.00;;
74177;SDS011;62540;48.456;-4.456;2023-12-14T06:26:54;1.50;;;0.00;;
74177;SDS011;62540;48.456;-4.456;2023-12-14T06:29:19;0.50;;;0.00;;
74177;SDS011;62540;48.456;-4.456;2023-12-14T06:31:45;1.00;;;0.00;;
74177;SDS011;62540;48.456;-4.456;2023-12-14T06:34:11;1.00;;;0.00;;
74177;SDS011;62540;48.456;-4.456;2023-12-14T06:36:37;1.00;;;1.00;;
74177;SDS011;62540;48.456;-4.456;2023-12-14T06:39:07;1.50;;;1.00;;
74177;SDS011;62540;48.456;-4.456;2023-12-14T06:41:33;2.25;;;0.75;;
74177;SDS011;62540;48.456;-4.456;2023-12-14T06:43:58;0.00;;;0.00;;
74177;SDS011;62540;48.456;-4.456;2023-12-14T06:46:23;1.00;;;1.00;;
74177;SDS011;62540;48.456;-4.456;2023-12-14T06:48:49;1.00;;;0.25;;
74177;SDS011;62540;48.456;-4.456;2023-12-14T06:51:14;0.00;;;0.00;;
74177;SDS011;62540;48.456;-4.456;2023-12-14T06:53:40;1.00;;;0.00;;
74177;SDS011;62540;48.456;-4.456;2023-12-14T06:56:07;0.00;;;0.00;;
74177;SDS011;62540;48.456;-4.456;2023-12-14T06:58:44;1.00;;;1.00;;
74177;SDS011;62540;48.456;-4.456;2023-12-14T07:01:13;1.00;;;1.00;;
74177;SDS011;62540;48.456;-4.456;2023-12-14T07:03:43;0.00;;;0.00;;
74177;SDS011;62540;48.456;-4.456;2023-12-14T07:06:16;1.00;;;0.00;;
74177;SDS011;62540;48.456;-4.456;2023-12-14T07:08:43;2.75;;;1.00;;
74177;SDS011;62540;48.456;-4.456;2023-12-14T07:11:08;0.00;;;0.00;;
74177;SDS011;62540;48.456;-4.456;2023-12-14T07:13:34;1.25;;;0.00;;
74177;SDS011;62540;48.456;-4.456;2023-12-14T07:16:02;0.00;;;0.00;;
74177;SDS011;62540;48.456;-4.456;2023-12-14T07:18:33;0.00;;;0.00;;
74177;SDS011;62540;48.456;-4.456;2023-12-14T07:21:04;0.00;;;0.00;;
74177;SDS011;62540;48.456;-4.456;2023-12-14T07:23:30;0.75;;;0.00;;
74177;SDS011;62540;48.456;-4.456;2023-12-14T07:25:56;0.00;;;0.00;;
74177;SDS011;62540;48.456;-4.456;2023-12-14T07:28:21;1.00;;;1.00;;
74177;SDS011;62540;48.456;-4.456;2023-12-14T07:30:47;1.00;;;1.00;;
74177;SDS011;62540;48.456;-4.456;2023-12-14T07:33:13;1.50;;;1.00;;
74177;SDS011;62540;48.456;-4.456;2023-12-14T07:35:39;0.00;;;0.00;;
74177;SDS011;62540;48.456;-4.456;2023-12-14T07:38:05;0.00;;;0.00;;
74177;SDS011;62540;48.456;-4.456;2023-12-14T07:40:30;0.50;;;0.50;;
74177;SDS011;62540;48.456;-4.456;2023-12-14T07:42:56;2.00;;;1.00;;
74177;SDS011;62540;48.456;-4.456;2023-12-14T07:45:21;2.00;;;1.00;;
74177;SDS011;62540;48.456;-4.456;2023-12-14T07:47:46;1.50;;;1.00;;
74177;SDS011;62540;48.456;-4.456;2023-12-14T07:50:12;2.50;;;2.00;;
74177;SDS011;62540;48.456;-4.456;2023-12-14T07:52:38;1.75;;;1.75;;
74177;SDS011;62540;48.456;-4.456;2023-12-14T07:55:04;2.00;;;1.50;;
74177;SDS011;62540;48.456;-4.456;2023-12-14T07:57:30;3.00;;;1.25;;
74177;SDS011;62540;48.456;-4.456;2023-12-14T07:59:56;2.00;;;2.00;;
74177;SDS011;62540;48.456;-4.456;2023-12-14T08:02:22;3.00;;;2.00;;
74177;SDS011;62540;48.456;-4.456;2023-12-14T08:04:47;3.25;;;2.00;;
74177;SDS011;62540;48.456;-4.456;2023-12-14T08:07:13;4.75;;;2.00;;
74177;SDS011;62540;48.456;-4.456;2023-12-14T08:09:38;5.00;;;4.00;;
74177;SDS011;62540;48.456;-4.456;2023-12-14T08:12:04;3.00;;;3.00;;
74177;SDS011;62540;48.456;-4.456;2023-12-14T08:14:31;3.00;;;2.00;;
74177;SDS011;62540;48.456;-4.456;2023-12-14T08:16:58;1.75;;;1.50;;
74177;SDS011;62540;48.456;-4.456;2023-12-14T08:19:23;2.50;;;2.00;;
74177;SDS011;62540;48.456;-4.456;2023-12-14T08:21:48;1.00;;;1.00;;
74177;SDS011;62540;48.456;-4.456;2023-12-14T08:24:14;2.00;;;1.00;;
74177;SDS011;62540;48.456;-4.456;2023-12-14T08:26:39;1.00;;;1.00;;
74177;SDS011;62540;48.456;-4.456;2023-12-14T08:29:04;1.75;;;1.00;;
74177;SDS011;62540;48.456;-4.456;2023-12-14T08:31:30;1.00;;;1.00;;
74177;SDS011;62540;48.456;-4.456;2023-12-14T08:33:55;1.00;;;1.00;;
74177;SDS011;62540;48.456;-4.456;2023-12-14T08:36:20;2.25;;;2.00;;
74177;SDS011;62540;48.456;-4.456;2023-12-14T08:38:46;2.25;;;2.00;;
74177;SDS011;62540;48.456;-4.456;2023-12-14T08:41:14;3.75;;;1.50;;
74177;SDS011;62540;48.456;-4.456;2023-12-14T08:43:40;2.00;;;2.00;;
74177;SDS011;62540;48.456;-4.456;2023-12-14T08:46:05;1.00;;;1.00;;
74177;SDS011;62540;48.456;-4.456;2023-12-14T08:48:30;1.00;;;1.00;;
74177;SDS011;62540;48.456;-4.456;2023-12-14T08:50:56;2.75;;;2.75;;
74177;SDS011;62540;48.456;-4.456;2023-12-14T08:53:22;4.00;;;4.00;;
74177;SDS011;62540;48.456;-4.456;2023-12-14T08:55:47;4.50;;;4.00;;
74177;SDS011;62540;48.456;-4.456;2023-12-14T08:58:12;3.25;;;3.25;;
74177;SDS011;62540;48.456;-4.456;2023-12-14T09:00:38;3.00;;;3.00;;
74177;SDS011;62540;48.456;-4.456;2023-12-14T09:03:03;4.00;;;3.00;;
74177;SDS011;62540;48.456;-4.456;2023-12-14T09:05:29;5.00;;;4.75;;
74177;SDS011;62540;48.456;-4.456;2023-12-14T09:07:54;5.00;;;4.00;;
74177;SDS011;62540;48.456;-4.456;2023-12-14T09:10:21;3.00;;;3.00;;
74177;SDS011;62540;48.456;-4.456;2023-12-14T09:12:47;3.75;;;3.00;;
74177;SDS011;62540;48.456;-4.456;2023-12-14T09:15:13;3.00;;;3.00;;
74177;SDS011;62540;48.456;-4.456;2023-12-14T09:17:40;2.00;;;2.00;;
74177;SDS011;62540;48.456;-4.456;2023-12-14T09:20:07;1.00;;;1.00;;
74177;SDS011;62540;48.456;-4.456;2023-12-14T09:22:33;1.00;;;1.00;;
74177;SDS011;62540;48.456;-4.456;2023-12-14T09:24:59;1.00;;;1.00;;
74177;SDS011;62540;48.456;-4.456;2023-12-14T09:27:24;0.00;;;0.00;;
74177;SDS011;62540;48.456;-4.456;2023-12-14T09:29:49;1.00;;;1.00;;
74177;SDS011;62540;48.456;-4.456;2023-12-14T09:32:15;1.00;;;1.00;;
74177;SDS011;62540;48.456;-4.456;2023-12-14T09:34:42;2.75;;;2.00;;
74177;SDS011;62540;48.456;-4.456;2023-12-14T09:37:08;4.00;;;2.50;;
74177;SDS011;62540;48.456;-4.456;2023-12-14T09:39:33;3.25;;;2.25;;
74177;SDS011;62540;48.456;-4.456;2023-12-14T09:42:02;2.00;;;1.00;;
74177;SDS011;62540;48.456;-4.456;2023-12-14T09:44:31;3.00;;;1.50;;
74177;SDS011;62540;48.456;-4.456;2023-12-14T09:47:00;2.25;;;2.00;;
74177;SDS011;62540;48.456;-4.456;2023-12-14T09:49:27;2.50;;;1.00;;
74177;SDS011;62540;48.456;-4.456;2023-12-14T09:51:54;2.00;;;2.00;;
74177;SDS011;62540;48.456;-4.456;2023-12-14T09:54:21;2.00;;;2.00;;
74177;SDS011;62540;48.456;-4.456;2023-12-14T09:56:47;2.00;;;1.00;;
74177;SDS011;62540;48.456;-4.456;2023-12-14T09:59:13;1.50;;;1.00;;
74177;SDS011;62540;48.456;-4.456;2023-12-14T10:01:39;3.25;;;2.00;;
74177;SDS011;62540;48.456;-4.456;2023-12-14T10:04:08;1.00;;;1.00;;
74177;SDS011;62540;48.456;-4.456;2023-12-14T10:06:35;1.00;;;1.00;;
74177;SDS011;62540;48.456;-4.456;2023-12-14T10:09:02;1.25;;;1.00;;
74177;SDS011;62540;48.456;-4.456;2023-12-14T10:11:28;1.00;;;0.75;;
74177;SDS011;62540;48.456;-4.456;2023-12-14T10:13:53;2.00;;;1.00;;
74177;SDS011;62540;48.456;-4.456;2023-12-14T10:16:31;3.00;;;2.75;;
74177;SDS011;62540;48.456;-4.456;2023-12-14T10:18:58;7.25;;;7.25;;
74177;SDS011;62540;48.456;-4.456;2023-12-14T10:21:25;5.00;;;5.00;;
74177;SDS011;62540;48.456;-4.456;2023-12-14T10:23:52;7.00;;;6.00;;
74177;SDS011;62540;48.456;-4.456;2023-12-14T10:26:21;5.00;;;5.00;;
74177;SDS011;62540;48.456;-4.456;2023-12-14T10:28:51;4.50;;;4.50;;
74177;SDS011;62540;48.456;-4.456;2023-12-14T10:31:17;2.25;;;2.25;;
74177;SDS011;62540;48.456;-4.456;2023-12-14T10:33:45;4.25;;;4.25;;
74177;SDS011;62540;48.456;-4.456;2023-12-14T10:36:11;2.25;;;1.75;;
74177;SDS011;62540;48.456;-4.456;2023-12-14T10:38:38;2.00;;;2.00;;
74177;SDS011;62540;48.456;-4.456;2023-12-14T10:41:04;0.50;;;0.50;;
74177;SDS011;62540;48.456;-4.456;2023-12-14T10:43:31;0.50;;;0.25;;
74177;SDS011;62540;48.456;-4.456;2023-12-14T10:45:58;1.00;;;1.00;;
74177;SDS011;62540;48.456;-4.456;2023-12-14T10:48:25;1.50;;;0.50;;
74177;SDS011;62540;48.456;-4.456;2023-12-14T10:50:51;1.00;;;1.00;;
74177;SDS011;62540;48.456;-4.456;2023-12-14T10:53:21;2.00;;;1.00;;
74177;SDS011;62540;48.456;-4.456;2023-12-14T10:55:46;1.75;;;1.00;;
74177;SDS011;62540;48.456;-4.456;2023-12-14T10:58:15;1.00;;;0.50;;
74177;SDS011;62540;48.456;-4.456;2023-12-14T11:00:40;0.00;;;0.00;;
74177;SDS011;62540;48.456;-4.456;2023-12-14T11:03:07;0.00;;;0.00;;
74177;SDS011;62540;48.456;-4.456;2023-12-14T11:05:33;0.75;;;0.00;;
74177;SDS011;62540;48.456;-4.456;2023-12-14T11:08:02;0.00;;;0.00;;
74177;SDS011;62540;48.456;-4.456;2023-12-14T11:10:37;0.75;;;0.75;;
74177;SDS011;62540;48.456;-4.456;2023-12-14T11:13:07;2.25;;;1.25;;
74177;SDS011;62540;48.456;-4.456;2023-12-14T11:15:39;3.25;;;2.50;;
74177;SDS011;62540;48.456;-4.456;2023-12-14T11:23:14;0.00;;;0.00;;
74177;SDS011;62540;48.456;-4.456;2023-12-14T11:25:50;0.00;;;0.00;;
74177;SDS011;62540;48.456;-4.456;2023-12-14T11:28:17;0.75;;;0.75;;
74177;SDS011;62540;48.456;-4.456;2023-12-14T11:30:46;0.00;;;0.00;;
74177;SDS011;62540;48.456;-4.456;2023-12-14T11:33:12;0.75;;;0.00;;
74177;SDS011;62540;48.456;-4.456;2023-12-14T11:35:37;0.75;;;0.25;;
74177;SDS011;62540;48.456;-4.456;2023-12-14T11:38:03;1.50;;;0.50;;
74177;SDS011;62540;48.456;-4.456;2023-12-14T11:40:35;1.00;;;1.00;;
74177;SDS011;62540;48.456;-4.456;2023-12-14T11:43:04;1.00;;;1.00;;
74177;SDS011;62540;48.456;-4.456;2023-12-14T11:45:39;1.00;;;1.00;;
74177;SDS011;62540;48.456;-4.456;2023-12-14T11:48:08;0.50;;;0.50;;
74177;SDS011;62540;48.456;-4.456;2023-12-14T11:50:36;1.00;;;1.00;;
74177;SDS011;62540;48.456;-4.456;2023-12-14T11:53:02;2.00;;;0.00;;
74177;SDS011;62540;48.456;-4.456;2023-12-14T11:55:29;0.50;;;0.50;;
74177;SDS011;62540;48.456;-4.456;2023-12-14T11:57:57;1.00;;;1.00;;
74177;SDS011;62540;48.456;-4.456;2023-12-14T12:00:24;2.00;;;1.00;;
74177;SDS011;62540;48.456;-4.456;2023-12-14T12:02:51;2.25;;;1.50;;
74177;SDS011;62540;48.456;-4.456;2023-12-14T12:05:16;2.50;;;0.75;;
74177;SDS011;62540;48.456;-4.456;2023-12-14T12:07:44;1.50;;;1.00;;
74177;SDS011;62540;48.456;-4.456;2023-12-14T12:10:12;2.25;;;1.00;;
74177;SDS011;62540;48.456;-4.456;2023-12-14T12:12:37;1.00;;;0.25;;
74177;SDS011;62540;48.456;-4.456;2023-12-14T12:15:03;0.75;;;0.00;;
74177;SDS011;62540;48.456;-4.456;2023-12-14T12:17:29;1.00;;;1.00;;
74177;SDS011;62540;48.456;-4.456;2023-12-14T12:19:58;2.25;;;1.00;;
74177;SDS011;62540;48.456;-4.456;2023-12-14T12:22:24;1.50;;;1.00;;
74177;SDS011;62540;48.456;-4.456;2023-12-14T12:24:49;1.00;;;1.00;;
74177;SDS011;62540;48.456;-4.456;2023-12-14T12:27:15;2.25;;;2.00;;
74177;SDS011;62540;48.456;-4.456;2023-12-14T12:29:40;1.25;;;1.25;;
74177;SDS011;62540;48.456;-4.456;2023-12-14T12:32:05;2.25;;;1.00;;
74177;SDS011;62540;48.456;-4.456;2023-12-14T12:34:31;3.00;;;2.00;;
74177;SDS011;62540;48.456;-4.456;2023-12-14T12:36:56;2.50;;;2.00;;
74177;SDS011;62540;48.456;-4.456;2023-12-14T12:39:22;3.00;;;2.00;;
74177;SDS011;62540;48.456;-4.456;2023-12-14T12:41:48;1.00;;;0.75;;
74177;SDS011;62540;48.456;-4.456;2023-12-14T12:44:13;2.25;;;1.00;;
74177;SDS011;62540;48.456;-4.456;2023-12-14T12:46:38;1.75;;;1.75;;
74177;SDS011;62540;48.456;-4.456;2023-12-14T12:49:04;1.25;;;1.00;;
74177;SDS011;62540;48.456;-4.456;2023-12-14T12:51:30;1.75;;;1.00;;
74177;SDS011;62540;48.456;-4.456;2023-12-14T12:53:59;1.50;;;0.75;;
74177;SDS011;62540;48.456;-4.456;2023-12-14T12:56:27;2.75;;;1.25;;
74177;SDS011;62540;48.456;-4.456;2023-12-14T12:58:53;2.25;;;2.25;;
74177;SDS011;62540;48.456;-4.456;2023-12-14T13:01:22;2.50;;;1.00;;
74177;SDS011;62540;48.456;-4.456;2023-12-14T13:03:54;3.00;;;2.75;;
74177;SDS011;62540;48.456;-4.456;2023-12-14T13:06:21;4.00;;;2.00;;
74177;SDS011;62540;48.456;-4.456;2023-12-14T13:08:47;1.00;;;0.75;;
74177;SDS011;62540;48.456;-4.456;2023-12-14T13:11:12;1.00;;;1.00;;
74177;SDS011;62540;48.456;-4.456;2023-12-14T13:13:37;0.50;;;0.00;;
74177;SDS011;62540;48.456;-4.456;2023-12-14T13:16:04;0.00;;;0.00;;
74177;SDS011;62540;48.456;-4.456;2023-12-14T13:18:30;1.00;;;0.00;;
74177;SDS011;62540;48.456;-4.456;2023-12-14T13:20:55;0.00;;;0.00;;
74177;SDS011;62540;48.456;-4.456;2023-12-14T13:23:20;0.50;;;0.00;;
74177;SDS011;62540;48.456;-4.456;2023-12-14T13:25:46;0.00;;;0.00;;
74177;SDS011;62540;48.456;-4.456;2023-12-14T13:28:11;1.00;;;0.00;;
74177;SDS011;62540;48.456;-4.456;2023-12-14T13:30:37;0.00;;;0.00;;
74177;SDS011;62540;48.456;-4.456;2023-12-14T13:33:02;0.00;;;0.00;;
74177;SDS011;62540;48.456;-4.456;2023-12-14T13:35:29;0.00;;;0.00;;
74177;SDS011;62540;48.456;-4.456;2023-12-14T13:37:54;0.75;;;0.75;;
74177;SDS011;62540;48.456;-4.456;2023-12-14T13:40:20;0.00;;;0.00;;
74177;SDS011;62540;48.456;-4.456;2023-12-14T13:42:45;1.25;;;0.75;;
74177;SDS011;62540;48.456;-4.456;2023-12-14T13:45:11;0.50;;;0.25;;
74177;SDS011;62540;48.456;-4.456;2023-12-14T13:47:36;0.00;;;0.00;;
74177;SDS011;62540;48.456;-4.456;2023-12-14T13:50:01;1.00;;;0.00;;
74177;SDS011;62540;48.456;-4.456;2023-12-14T13:52:29;0.00;;;0.00;;
74177;SDS011;62540;48.456;-4.456;2023-12-14T13:54:55;0.00;;;0.00;;
74177;SDS011;62540;48.456;-4.456;2023-12-14T13:57:21;0.00;;;0.00;;
74177;SDS011;62540;48.456;-4.456;2023-12-14T13:59:47;1.00;;;1.00;;
74177;SDS011;62540;48.456;-4.456;2023-12-14T14:02:12;1.00;;;0.00;;
74177;SDS011;62540;48.456;-4.456;2023-12-14T14:04:38;2.00;;;0.00;;
74177;SDS011;62540;48.456;-4.456;2023-12-14T14:07:03;1.00;;;0.00;;
74177;SDS011;62540;48.456;-4.456;2023-12-14T14:09:29;1.25;;;0.00;;
74177;SDS011;62540;48.456;-4.456;2023-12-14T14:11:54;1.00;;;1.00;;
74177;SDS011;62540;48.456;-4.456;2023-12-14T14:14:20;0.00;;;0.00;;
74177;SDS011;62540;48.456;-4.456;2023-12-14T14:16:48;1.00;;;0.00;;
74177;SDS011;62540;48.456;-4.456;2023-12-14T14:19:13;1.00;;;1.00;;
74177;SDS011;62540;48.456;-4.456;2023-12-14T14:21:39;1.00;;;0.50;;
74177;SDS011;62540;48.456;-4.456;2023-12-14T14:24:04;2.25;;;0.00;;
74177;SDS011;62540;48.456;-4.456;2023-12-14T14:26:30;0.75;;;0.00;;
74177;SDS011;62540;48.456;-4.456;2023-12-14T14:28:56;3.50;;;2.00;;
74177;SDS011;62540;48.456;-4.456;2023-12-14T14:31:24;3.00;;;1.00;;